Time;durP1;ratioP1;P1;durP2;ratioP2;P2;SDS_P1;SDS_P2;PMS_P1;PMS_P2;Temp;Humidity;BMP_temperature;BMP_pressure;BME280_temperature;BME280_humidity;BME280_pressure;Samples;Min_cycle;Max_cycle;Signal;HPM_P1;HPM_P2
2023/03/10 00:02:21;;;;;;;6.72;1.70;;;9.30;99.90;;;;;;5027175;28;20363;-53
2023/03/10 00:04:49;;;;;;;5.53;1.38;;;9.60;99.90;;;;;;5028106;28;20132;-55
2023/03/10 00:07:15;;;;;;;4.55;1.58;;;9.50;99.90;;;;;;5032038;28;20041;-54
2023/03/10 00:09:40;;;;;;;3.72;1.13;;;9.50;99.90;;;;;;5032026;28;20034;-53
2023/03/10 00:12:06;;;;;;;6.15;1.23;;;9.50;99.90;;;;;;5036921;28;20171;-55
2023/03/10 00:14:32;;;;;;;6.72;1.35;;;9.60;99.90;;;;;;5024843;28;20397;-53
2023/03/10 00:16:57;;;;;;;4.05;1.17;;;9.60;99.90;;;;;;5027271;28;20045;-53
2023/03/10 00:19:23;;;;;;;2.95;1.20;;;9.60;99.90;;;;;;5028294;28;20162;-53
2023/03/10 00:21:48;;;;;;;4.18;1.42;;;9.80;99.90;;;;;;5028624;28;20405;-53
2023/03/10 00:24:14;;;;;;;4.50;1.40;;;9.60;99.90;;;;;;5032709;28;20329;-53
2023/03/10 00:26:40;;;;;;;5.70;1.50;;;9.70;99.90;;;;;;5031479;28;20052;-54
2023/03/10 00:29:05;;;;;;;3.60;1.30;;;9.70;99.90;;;;;;5034376;28;20389;-54
2023/03/10 00:31:31;;;;;;;3.60;1.67;;;9.70;99.90;;;;;;5031762;28;20497;-54
2023/03/10 00:33:57;;;;;;;5.07;1.60;;;9.80;99.90;;;;;;5031878;28;20030;-53
2023/03/10 00:36:26;;;;;;;4.30;2.05;;;9.80;99.90;;;;;;5028569;28;20080;-54
2023/03/10 00:38:53;;;;;;;5.18;1.88;;;9.80;99.90;;;;;;5031272;28;20103;-54
2023/03/10 00:41:22;;;;;;;3.33;1.70;;;9.80;99.90;;;;;;5037606;28;20033;-54
2023/03/10 00:43:48;;;;;;;4.70;1.75;;;9.90;99.90;;;;;;5040118;28;20039;-54
2023/03/10 00:46:14;;;;;;;4.60;2.05;;;9.90;99.90;;;;;;5036622;28;20484;-54
2023/03/10 00:48:40;;;;;;;4.53;2.03;;;9.90;99.90;;;;;;5037438;28;20341;-54
2023/03/10 00:51:07;;;;;;;3.97;2.20;;;9.90;99.90;;;;;;5030127;28;20392;-54
2023/03/10 00:53:37;;;;;;;2.60;1.90;;;9.90;99.90;;;;;;5038075;28;20041;-53
2023/03/10 00:56:15;;;;;;;4.90;2.30;;;9.90;99.90;;;;;;5034051;28;20590;-54
2023/03/10 00:58:42;;;;;;;7.22;2.33;;;9.80;99.90;;;;;;5035215;28;20029;-54
2023/03/10 01:01:17;;;;;;;5.20;2.22;;;9.80;99.90;;;;;;5037284;28;20156;-52
2023/03/10 01:03:43;;;;;;;4.22;2.03;;;9.80;99.90;;;;;;5034433;28;20637;-54
2023/03/10 01:06:09;;;;;;;7.50;2.47;;;9.80;99.90;;;;;;5038958;28;20025;-54
2023/03/10 01:08:35;;;;;;;5.03;2.33;;;9.80;99.90;;;;;;5034064;28;20052;-54
2023/03/10 01:11:00;;;;;;;5.07;2.15;;;9.90;99.90;;;;;;5036422;28;20991;-54
2023/03/10 01:13:26;;;;;;;5.25;2.10;;;9.90;99.90;;;;;;5037595;28;20516;-54
2023/03/10 01:15:51;;;;;;;5.20;2.17;;;9.90;99.90;;;;;;5035173;28;20091;-54
2023/03/10 01:18:18;;;;;;;4.13;2.67;;;9.80;99.90;;;;;;5042561;28;20322;-54
2023/03/10 01:20:44;;;;;;;7.85;2.88;;;9.80;99.90;;;;;;5034882;28;20037;-54
2023/03/10 01:23:22;;;;;;;5.50;2.80;;;9.80;99.90;;;;;;5035623;28;20092;-53
2023/03/10 01:25:48;;;;;;;4.05;2.90;;;9.80;99.90;;;;;;5034211;28;20113;-55
2023/03/10 01:28:14;;;;;;;5.93;2.92;;;9.80;99.90;;;;;;5026384;28;20547;-54
2023/03/10 01:30:41;;;;;;;6.40;3.15;;;9.90;99.90;;;;;;5033412;28;20034;-54
2023/03/10 01:33:07;;;;;;;6.20;3.28;;;9.80;99.90;;;;;;5025829;28;20301;-54
2023/03/10 01:35:33;;;;;;;6.50;3.58;;;9.90;99.90;;;;;;5022231;28;20029;-55
2023/03/10 01:37:59;;;;;;;6.68;4.03;;;9.80;99.90;;;;;;5036033;28;20048;-54
2023/03/10 01:40:25;;;;;;;5.95;3.90;;;9.90;99.90;;;;;;5040047;28;20037;-54
2023/03/10 01:42:52;;;;;;;6.65;4.00;;;9.80;99.90;;;;;;5036224;28;20037;-54
2023/03/10 01:45:17;;;;;;;7.13;3.80;;;9.70;99.90;;;;;;5035455;28;20416;-55
2023/03/10 01:47:43;;;;;;;6.15;3.30;;;9.70;99.90;;;;;;5042184;28;20099;-55
2023/03/10 01:50:12;;;;;;;4.85;3.03;;;9.60;99.90;;;;;;5037600;28;20515;-55
2023/03/10 01:52:41;;;;;;;4.88;2.97;;;9.70;99.90;;;;;;5040090;28;20036;-55
2023/03/10 01:55:10;;;;;;;3.40;2.90;;;9.70;99.90;;;;;;5038834;28;20025;-54
2023/03/10 01:57:42;;;;;;;5.55;2.88;;;9.70;99.90;;;;;;5036345;28;20117;-54
2023/03/10 02:00:12;;;;;;;3.63;2.78;;;9.70;99.90;;;;;;5030015;28;20065;-55
2023/03/10 02:03:08;;;;;;;5.22;3.13;;;9.70;99.90;;;;;;5038839;28;21270;-55
2023/03/10 02:05:37;;;;;;;5.38;3.53;;;10.00;99.90;;;;;;5060201;28;20119;-53
2023/03/10 02:08:04;;;;;;;4.35;3.10;;;9.90;99.90;;;;;;5048147;28;20025;-54
2023/03/10 02:10:31;;;;;;;6.63;3.70;;;10.00;99.90;;;;;;5058517;28;20036;-55
2023/03/10 02:12:56;;;;;;;6.07;3.75;;;9.90;99.90;;;;;;5058685;28;20812;-54
2023/03/10 02:15:22;;;;;;;5.60;4.30;;;9.90;99.90;;;;;;5056468;28;20067;-55
2023/03/10 02:17:50;;;;;;;8.05;4.70;;;9.80;99.90;;;;;;5053881;28;20040;-55
2023/03/10 02:20:36;;;;;;;5.57;3.83;;;9.70;99.90;;;;;;5054546;28;20029;-55
2023/03/10 02:23:02;;;;;;;6.38;4.53;;;9.80;99.90;;;;;;5048808;28;20033;-54
2023/03/10 02:25:36;;;;;;;6.28;4.40;;;9.70;99.90;;;;;;5057099;28;20693;-54
2023/03/10 02:28:03;;;;;;;6.18;4.60;;;9.80;99.90;;;;;;5057299;28;20025;-54
2023/03/10 02:30:34;;;;;;;5.07;4.15;;;9.70;99.90;;;;;;5058914;28;20064;-53
2023/03/10 02:33:13;;;;;;;6.85;4.35;;;9.70;99.90;;;;;;5055919;28;20128;-54
2023/03/10 02:35:39;;;;;;;5.40;3.80;;;9.70;99.90;;;;;;5040964;28;20041;-55
2023/03/10 02:38:05;;;;;;;9.40;4.18;;;9.70;99.90;;;;;;5031566;28;20156;-55
2023/03/10 02:40:36;;;;;;;5.88;3.80;;;9.80;99.90;;;;;;5033579;28;20033;-55
2023/03/10 02:43:21;;;;;;;8.20;3.67;;;9.80;99.90;;;;;;5039176;28;20485;-53
2023/03/10 02:45:48;;;;;;;6.72;3.80;;;9.80;99.90;;;;;;5035752;28;20030;-56
2023/03/10 02:48:19;;;;;;;8.13;3.75;;;9.80;99.90;;;;;;5035471;28;20726;-54
2023/03/10 02:50:46;;;;;;;5.25;3.30;;;9.80;99.90;;;;;;5016173;28;20041;-54
2023/03/10 02:53:16;;;;;;;5.88;4.00;;;9.70;99.90;;;;;;5021440;28;20037;-54
2023/03/10 02:55:42;;;;;;;7.70;3.50;;;9.80;99.90;;;;;;5035050;28;20500;-54
2023/03/10 02:58:08;;;;;;;10.23;3.83;;;9.80;99.90;;;;;;5037764;28;20060;-54
2023/03/10 03:00:42;;;;;;;7.65;3.85;;;9.80;99.90;;;;;;5035987;28;20056;-54
2023/03/10 03:03:09;;;;;;;6.90;3.95;;;9.80;99.90;;;;;;5031767;28;20396;-56
2023/03/10 03:05:36;;;;;;;7.38;3.03;;;9.70;99.90;;;;;;5034757;28;20397;-55
2023/03/10 03:08:03;;;;;;;11.63;3.70;;;9.60;99.90;;;;;;5032299;28;20041;-54
2023/03/10 03:10:29;;;;;;;10.38;4.13;;;9.60;99.90;;;;;;5034351;28;20112;-55
2023/03/10 03:12:55;;;;;;;6.70;3.20;;;9.70;99.90;;;;;;5039187;28;20171;-55
2023/03/10 03:15:21;;;;;;;7.88;2.95;;;9.80;99.90;;;;;;5036851;28;20029;-53
2023/03/10 03:17:47;;;;;;;7.38;3.47;;;9.80;99.90;;;;;;5037618;28;20046;-54
2023/03/10 03:20:13;;;;;;;7.45;3.67;;;9.80;99.90;;;;;;5035069;28;20036;-54
2023/03/10 03:22:44;;;;;;;8.55;3.95;;;9.80;99.90;;;;;;5027395;28;20036;-52
2023/03/10 03:25:12;;;;;;;9.50;4.25;;;9.90;99.90;;;;;;5037640;28;20068;-54
2023/03/10 03:27:38;;;;;;;13.02;4.60;;;9.90;99.90;;;;;;5037104;28;20116;-52
2023/03/10 03:30:10;;;;;;;8.00;4.80;;;9.90;99.90;;;;;;5033776;28;20037;-53
2023/03/10 03:32:35;;;;;;;11.48;4.03;;;9.90;99.90;;;;;;5029746;28;20033;-53
2023/03/10 03:35:03;;;;;;;13.00;3.80;;;9.80;99.90;;;;;;5037395;28;20128;-54
2023/03/10 03:37:29;;;;;;;7.15;3.00;;;9.80;99.90;;;;;;5034234;28;20341;-53
2023/03/10 03:39:54;;;;;;;8.57;3.00;;;9.70;99.90;;;;;;5030779;28;20041;-54
2023/03/10 03:42:20;;;;;;;8.02;2.72;;;9.60;99.90;;;;;;5032867;28;20029;-54
2023/03/10 03:44:46;;;;;;;10.05;2.75;;;9.60;99.90;;;;;;5030730;28;20366;-55
2023/03/10 03:47:11;;;;;;;9.85;2.78;;;9.60;99.90;;;;;;5031908;28;20044;-54
2023/03/10 03:49:37;;;;;;;7.75;2.72;;;9.70;99.90;;;;;;5034297;28;20453;-55
2023/03/10 03:52:04;;;;;;;11.30;3.13;;;9.70;99.90;;;;;;5031919;28;20072;-53
2023/03/10 03:54:30;;;;;;;8.45;3.38;;;9.80;99.90;;;;;;5026401;28;20767;-54
2023/03/10 03:56:55;;;;;;;7.25;2.67;;;9.70;99.90;;;;;;5032596;28;20134;-54
2023/03/10 03:59:21;;;;;;;8.48;2.90;;;9.70;99.90;;;;;;5035709;28;20041;-54
2023/03/10 04:01:47;;;;;;;10.05;3.10;;;9.70;99.90;;;;;;5027881;28;20048;-54
2023/03/10 04:04:12;;;;;;;10.75;3.35;;;9.70;99.90;;;;;;5033006;28;20057;-53
2023/03/10 04:06:38;;;;;;;8.00;3.90;;;9.70;99.90;;;;;;5029634;28;20029;-53
2023/03/10 04:09:03;;;;;;;6.28;3.22;;;9.60;99.90;;;;;;5037910;28;20036;-54
2023/03/10 04:11:29;;;;;;;8.90;3.55;;;9.60;99.90;;;;;;5042557;28;20563;-54
2023/03/10 04:13:55;;;;;;;9.88;3.38;;;9.60;99.90;;;;;;5039752;28;20025;-54
2023/03/10 04:16:20;;;;;;;9.55;3.50;;;9.60;99.90;;;;;;5026625;28;20123;-54
2023/03/10 04:18:46;;;;;;;6.95;3.35;;;9.50;99.90;;;;;;5037936;28;20037;-54
2023/03/10 04:21:11;;;;;;;5.97;3.17;;;9.50;99.90;;;;;;5030627;28;20026;-53
2023/03/10 04:23:40;;;;;;;9.15;3.67;;;9.50;99.90;;;;;;5039950;28;20025;-54
2023/03/10 04:26:07;;;;;;;10.40;3.13;;;9.40;99.90;;;;;;5034300;28;20025;-55
2023/03/10 04:28:33;;;;;;;9.00;3.40;;;9.40;99.90;;;;;;5035286;28;20025;-54
2023/03/10 04:30:58;;;;;;;11.23;3.28;;;9.40;99.90;;;;;;5038686;28;20107;-54
2023/03/10 04:33:24;;;;;;;6.82;3.15;;;9.30;99.90;;;;;;5028137;28;20037;-54
2023/03/10 04:35:50;;;;;;;9.23;3.42;;;9.30;99.90;;;;;;5036060;28;20042;-54
2023/03/10 04:38:16;;;;;;;7.70;2.83;;;9.20;99.90;;;;;;5038129;28;20278;-54
2023/03/10 04:40:42;;;;;;;6.60;2.72;;;9.40;99.90;;;;;;5025652;28;20087;-53
2023/03/10 04:43:07;;;;;;;11.95;3.10;;;9.30;99.90;;;;;;5035486;28;20064;-53
2023/03/10 04:45:33;;;;;;;10.13;3.40;;;9.30;99.90;;;;;;5043513;28;20048;-54
2023/03/10 04:47:59;;;;;;;5.68;2.33;;;9.20;99.90;;;;;;5040385;28;20044;-53
2023/03/10 04:50:24;;;;;;;9.13;2.28;;;9.10;99.90;;;;;;5032633;28;20306;-55
2023/03/10 04:52:50;;;;;;;5.70;2.47;;;9.10;99.90;;;;;;5039934;28;20052;-53
2023/03/10 04:55:16;;;;;;;10.98;2.45;;;9.00;99.90;;;;;;5028864;28;20030;-54
2023/03/10 04:57:41;;;;;;;8.25;3.10;;;9.00;99.90;;;;;;5035491;28;20045;-55
2023/03/10 05:00:11;;;;;;;8.32;2.25;;;9.00;99.90;;;;;;5035157;28;20110;-53
2023/03/10 05:02:38;;;;;;;5.20;2.33;;;9.10;99.90;;;;;;5039427;28;20033;-55
2023/03/10 05:05:04;;;;;;;8.48;2.90;;;9.00;99.90;;;;;;5039807;28;20116;-54
2023/03/10 05:07:31;;;;;;;9.65;2.17;;;8.90;99.90;;;;;;5038385;28;20155;-54
2023/03/10 05:09:57;;;;;;;3.63;1.65;;;9.00;99.90;;;;;;5029536;28;20061;-54
2023/03/10 05:12:23;;;;;;;8.90;2.00;;;8.90;99.90;;;;;;5037817;28;20159;-54
2023/03/10 05:14:48;;;;;;;14.43;2.72;;;8.80;99.90;;;;;;5037580;28;20119;-54
2023/03/10 05:17:14;;;;;;;7.07;2.33;;;8.90;99.90;;;;;;5036214;28;20037;-54
2023/03/10 05:19:40;;;;;;;5.15;2.10;;;8.80;99.90;;;;;;5036587;28;20025;-53
2023/03/10 05:22:06;;;;;;;6.03;2.10;;;8.90;99.90;;;;;;5017293;28;20079;-54
2023/03/10 05:24:32;;;;;;;9.32;2.20;;;8.80;99.90;;;;;;5029295;28;20037;-54
2023/03/10 05:26:58;;;;;;;6.93;2.13;;;9.40;99.90;;;;;;5038888;28;20057;-53
2023/03/10 05:29:23;;;;;;;13.65;2.20;;;8.70;99.90;;;;;;5037773;28;20489;-54
2023/03/10 05:31:49;;;;;;;7.53;2.20;;;8.70;99.90;;;;;;5034885;28;20040;-54
2023/03/10 05:34:15;;;;;;;7.25;1.83;;;8.70;99.90;;;;;;5039950;28;20044;-52
2023/03/10 05:36:41;;;;;;;8.40;1.85;;;8.70;99.90;;;;;;5035096;28;20029;-54
2023/03/10 05:39:08;;;;;;;11.70;2.50;;;8.70;99.90;;;;;;5034092;28;20120;-53
2023/03/10 05:41:35;;;;;;;10.07;1.92;;;8.80;99.90;;;;;;5038136;28;20036;-53
2023/03/10 05:44:01;;;;;;;14.15;2.47;;;8.80;99.90;;;;;;5028430;28;20038;-52
2023/03/10 05:46:27;;;;;;;9.30;2.03;;;8.80;99.90;;;;;;5027992;28;20726;-54
2023/03/10 05:48:53;;;;;;;7.80;2.63;;;8.80;99.90;;;;;;5030476;28;20025;-54
2023/03/10 05:51:19;;;;;;;9.82;2.13;;;8.90;99.90;;;;;;5032138;28;20029;-52
2023/03/10 05:53:44;;;;;;;11.18;2.17;;;8.90;99.90;;;;;;5036488;28;20052;-53
2023/03/10 05:56:16;;;;;;;14.38;2.85;;;8.90;99.90;;;;;;5035827;28;20644;-53
2023/03/10 05:58:42;;;;;;;12.00;2.20;;;8.90;99.90;;;;;;5033309;28;20084;-53
2023/03/10 06:01:08;;;;;;;9.75;2.35;;;8.90;99.90;;;;;;5031181;28;20034;-53
2023/03/10 06:03:34;;;;;;;12.10;2.67;;;8.90;99.90;;;;;;5034406;28;20375;-53
2023/03/10 06:06:00;;;;;;;10.60;2.50;;;8.90;99.90;;;;;;5031597;28;20029;-52
2023/03/10 06:08:29;;;;;;;12.82;2.10;;;9.00;99.90;;;;;;5027126;28;20084;-53
2023/03/10 06:10:56;;;;;;;14.63;2.78;;;9.00;99.90;;;;;;5027187;28;20041;-54
2023/03/10 06:13:22;;;;;;;11.80;2.85;;;8.90;99.90;;;;;;5030717;28;20068;-54
2023/03/10 06:16:04;;;;;;;12.85;2.72;;;9.00;99.90;;;;;;5034388;28;20041;-54
2023/03/10 06:18:30;;;;;;;14.35;2.35;;;9.00;99.90;;;;;;5030210;28;20422;-54
2023/03/10 06:20:55;;;;;;;16.67;2.65;;;9.00;99.90;;;;;;5012222;28;20053;-55
2023/03/10 06:23:22;;;;;;;9.13;2.55;;;9.00;99.90;;;;;;5029319;28;20037;-55
2023/03/10 06:26:10;;;;;;;11.23;2.65;;;9.10;99.90;;;;;;5033929;28;20087;-54
2023/03/10 06:28:37;;;;;;;11.40;2.50;;;9.20;99.90;;;;;;5029252;28;20028;-54
2023/03/10 06:31:06;;;;;;;15.80;3.08;;;9.20;99.90;;;;;;5042444;28;20068;-54
2023/03/10 06:33:32;;;;;;;15.75;3.38;;;9.30;99.90;;;;;;5047452;28;20036;-54
2023/03/10 06:35:58;;;;;;;15.43;2.85;;;9.30;99.90;;;;;;5056470;28;20078;-55
2023/03/10 06:38:24;;;;;;;19.52;3.38;;;9.30;99.90;;;;;;5056628;28;20435;-54
2023/03/10 06:40:50;;;;;;;12.77;2.67;;;9.40;99.90;;;;;;5054697;28;20047;-54
2023/03/10 06:43:16;;;;;;;13.27;2.85;;;9.50;99.90;;;;;;5059370;28;20402;-55
2023/03/10 06:45:43;;;;;;;10.88;2.88;;;9.40;99.90;;;;;;5057248;28;20037;-55
2023/03/10 06:48:09;;;;;;;16.92;3.40;;;9.40;99.90;;;;;;5053670;28;20556;-54
2023/03/10 06:50:34;;;;;;;13.63;2.97;;;9.50;99.90;;;;;;5053168;28;20102;-55
2023/03/10 06:53:00;;;;;;;18.15;2.97;;;9.40;99.90;;;;;;5044067;28;20407;-55
2023/03/10 06:55:26;;;;;;;14.88;2.63;;;9.50;99.90;;;;;;5044092;28;20484;-55
2023/03/10 06:57:51;;;;;;;14.88;2.92;;;9.60;99.90;;;;;;5053127;28;20033;-55
2023/03/10 07:00:18;;;;;;;14.40;2.80;;;9.50;99.90;;;;;;5047243;28;20036;-54
2023/03/10 07:02:43;;;;;;;13.40;2.85;;;9.50;99.90;;;;;;5024925;28;20037;-53
2023/03/10 07:05:11;;;;;;;14.40;3.47;;;9.50;99.90;;;;;;5047207;28;20052;-55
2023/03/10 07:07:36;;;;;;;14.45;2.83;;;9.50;99.90;;;;;;5047369;28;20033;-55
2023/03/10 07:10:03;;;;;;;15.50;3.10;;;9.40;99.90;;;;;;5046299;28;20048;-54
2023/03/10 07:12:29;;;;;;;20.92;2.95;;;9.40;99.90;;;;;;5041068;28;20041;-55
2023/03/10 07:14:54;;;;;;;12.60;3.22;;;9.50;99.90;;;;;;5046531;28;20045;-55
2023/03/10 07:17:20;;;;;;;16.60;3.20;;;9.40;99.90;;;;;;5044527;28;20030;-54
2023/03/10 07:19:45;;;;;;;13.10;2.92;;;9.40;99.90;;;;;;5045898;28;20238;-54
2023/03/10 07:22:11;;;;;;;17.70;3.22;;;9.40;99.90;;;;;;5046165;28;20029;-54
2023/03/10 07:24:37;;;;;;;16.60;3.10;;;9.50;99.90;;;;;;5045216;28;20210;-54
2023/03/10 07:27:03;;;;;;;14.30;2.42;;;9.50;99.90;;;;;;5043596;28;20567;-53
2023/03/10 07:29:28;;;;;;;12.48;2.55;;;9.60;99.90;;;;;;5037432;28;20041;-53
2023/03/10 07:31:55;;;;;;;8.85;2.53;;;9.60;99.90;;;;;;5044046;28;20126;-55
2023/03/10 07:34:21;;;;;;;9.20;2.35;;;9.60;99.90;;;;;;5039614;28;20037;-55
2023/03/10 07:36:46;;;;;;;12.55;3.08;;;9.60;99.90;;;;;;5045404;28;20563;-54
2023/03/10 07:39:12;;;;;;;9.38;2.58;;;9.60;99.90;;;;;;5038495;28;20455;-55
2023/03/10 07:41:38;;;;;;;12.32;2.58;;;9.50;99.90;;;;;;5042193;28;20033;-55
2023/03/10 07:44:03;;;;;;;11.07;2.95;;;9.50;99.90;;;;;;5044498;28;20128;-54
2023/03/10 07:46:30;;;;;;;10.68;2.75;;;9.60;99.90;;;;;;5045366;28;20036;-55
2023/03/10 07:48:57;;;;;;;12.60;2.78;;;9.60;99.90;;;;;;5045303;28;20556;-55
2023/03/10 07:51:23;;;;;;;9.40;2.83;;;9.60;99.90;;;;;;5043568;28;20029;-55
2023/03/10 07:53:48;;;;;;;10.35;2.50;;;9.70;99.90;;;;;;5027396;28;20120;-56
2023/03/10 07:56:14;;;;;;;8.98;2.75;;;9.80;99.90;;;;;;5042288;28;20040;-55
2023/03/10 07:58:39;;;;;;;10.10;2.60;;;9.80;99.90;;;;;;5047809;28;20467;-55
2023/03/10 08:01:06;;;;;;;11.75;2.65;;;9.80;99.90;;;;;;5046437;28;20039;-55
2023/03/10 08:03:35;;;;;;;14.38;2.50;;;9.80;99.90;;;;;;5045535;28;20160;-55
2023/03/10 08:06:04;;;;;;;11.02;2.53;;;9.80;99.90;;;;;;5041439;28;20486;-55
2023/03/10 08:08:30;;;;;;;7.63;2.30;;;9.80;99.90;;;;;;5049195;28;20518;-53
2023/03/10 08:11:04;;;;;;;9.38;2.70;;;9.80;99.90;;;;;;5049398;28;20047;-53
2023/03/10 08:13:30;;;;;;;12.35;2.88;;;9.80;99.90;;;;;;5033164;28;20029;-54
2023/03/10 08:15:58;;;;;;;11.55;2.70;;;9.80;99.90;;;;;;5029106;28;20042;-55
2023/03/10 08:18:25;;;;;;;12.10;3.47;;;9.90;99.90;;;;;;5030731;28;20037;-57
2023/03/10 08:20:50;;;;;;;18.02;3.20;;;9.80;99.90;;;;;;5027610;28;20067;-55
2023/03/10 08:23:16;;;;;;;13.07;3.03;;;9.90;99.90;;;;;;5012043;28;20400;-55
2023/03/10 08:25:42;;;;;;;11.15;3.03;;;10.00;99.90;;;;;;5019660;28;20061;-54
2023/03/10 08:28:07;;;;;;;17.48;3.47;;;10.00;99.90;;;;;;5020712;28;20400;-54
2023/03/10 08:30:33;;;;;;;12.07;2.95;;;10.00;99.90;;;;;;5022376;28;20045;-54
2023/03/10 08:32:59;;;;;;;13.18;3.47;;;10.10;99.90;;;;;;5027342;28;20037;-55
2023/03/10 08:35:25;;;;;;;14.05;3.47;;;10.10;99.90;;;;;;5034772;28;20091;-55
2023/03/10 08:37:51;;;;;;;13.50;2.88;;;10.10;99.90;;;;;;5019250;28;20507;-55
2023/03/10 08:40:17;;;;;;;16.33;3.22;;;10.30;99.90;;;;;;5030407;28;20524;-55
2023/03/10 08:42:43;;;;;;;14.88;3.60;;;10.30;99.90;;;;;;5035723;28;20257;-55
2023/03/10 08:45:11;;;;;;;15.48;3.53;;;10.40;99.90;;;;;;5025024;28;20041;-55
2023/03/10 08:47:36;;;;;;;13.85;3.10;;;10.50;99.90;;;;;;5016199;28;20041;-56
2023/03/10 08:50:05;;;;;;;16.00;3.40;;;10.50;99.90;;;;;;5022784;28;20052;-53
2023/03/10 08:52:30;;;;;;;13.38;3.28;;;10.60;99.90;;;;;;5005818;28;20053;-55
2023/03/10 08:54:56;;;;;;;21.10;3.72;;;10.60;99.90;;;;;;5022520;28;20041;-55
2023/03/10 08:57:22;;;;;;;18.25;3.40;;;11.00;99.90;;;;;;5024597;28;20059;-55
2023/03/10 08:59:47;;;;;;;16.40;3.17;;;10.80;99.90;;;;;;5030152;28;20096;-55
2023/03/10 09:02:14;;;;;;;16.15;3.38;;;10.80;99.90;;;;;;5021070;28;20025;-55
2023/03/10 09:04:40;;;;;;;15.18;3.47;;;10.90;99.90;;;;;;5027156;28;20309;-55
2023/03/10 09:07:06;;;;;;;18.30;3.15;;;10.90;99.90;;;;;;5023961;28;20065;-54
2023/03/10 09:09:32;;;;;;;13.73;3.15;;;11.00;99.90;;;;;;5016736;28;20099;-55
2023/03/10 09:11:58;;;;;;;16.23;3.42;;;;;;;;;;5018420;28;20117;-55
2023/03/10 09:14:23;;;;;;;16.42;4.05;;;11.60;99.90;;;;;;5021549;28;20054;-55
2023/03/10 09:16:49;;;;;;;12.10;3.20;;;11.40;99.90;;;;;;5010210;28;20049;-55
2023/03/10 09:19:14;;;;;;;16.17;3.13;;;11.60;99.90;;;;;;5033966;28;20041;-55
2023/03/10 09:21:41;;;;;;;13.23;3.20;;;12.30;99.90;;;;;;5021640;28;20030;-54
2023/03/10 09:24:07;;;;;;;20.70;3.75;;;11.40;99.90;;;;;;5030146;28;20500;-53
2023/03/10 09:26:33;;;;;;;13.40;3.08;;;11.40;99.90;;;;;;5020366;28;20485;-54
2023/03/10 09:29:00;;;;;;;16.02;2.75;;;11.40;99.90;;;;;;5022298;28;20091;-55
2023/03/10 09:31:34;;;;;;;15.57;3.78;;;11.50;99.90;;;;;;5023350;28;20092;-55
2023/03/10 09:34:00;;;;;;;16.00;3.33;;;11.50;99.90;;;;;;5022739;28;20053;-54
2023/03/10 09:36:27;;;;;;;14.77;3.15;;;11.50;99.90;;;;;;5030280;28;20060;-54
2023/03/10 09:38:53;;;;;;;13.55;2.90;;;11.60;99.90;;;;;;5015608;28;20494;-55
2023/03/10 09:41:35;;;;;;;11.93;2.53;;;11.70;99.90;;;;;;5017979;28;20117;-55
2023/03/10 09:44:30;;;;;;;15.57;2.53;;;12.00;99.90;;;;;;5026592;28;20029;-55
2023/03/10 09:47:14;;;;;;;13.30;3.08;;;12.10;99.90;;;;;;5021984;28;20292;-54
2023/03/10 09:49:54;;;;;;;16.27;2.55;;;12.10;99.90;;;;;;5016963;28;20515;-55
2023/03/10 09:52:37;;;;;;;14.68;3.35;;;12.10;99.90;;;;;;5012246;28;20501;-55
2023/03/10 09:55:11;;;;;;;;;;;12.30;99.90;;;;;;5004214;28;20663;-54
2023/03/10 09:57:37;;;;;;;15.10;2.80;;;12.20;99.90;;;;;;5013241;28;19925;-55
2023/03/10 10:00:09;;;;;;;12.32;2.90;;;12.00;99.90;;;;;;5016985;28;20033;-54
2023/03/10 10:02:40;;;;;;;11.85;2.53;;;12.00;99.90;;;;;;5020270;28;20037;-55
2023/03/10 10:05:14;;;;;;;13.30;2.80;;;12.00;99.90;;;;;;5016513;28;20042;-55
2023/03/10 10:07:50;;;;;;;14.02;2.25;;;12.20;99.90;;;;;;5016426;28;20115;-60
2023/03/10 10:10:23;;;;;;;15.38;2.58;;;12.20;99.90;;;;;;5017750;28;20095;-55
2023/03/10 10:12:51;;;;;;;11.85;2.35;;;12.30;99.90;;;;;;5024205;28;20033;-55
2023/03/10 10:15:21;;;;;;;8.57;2.00;;;12.20;99.90;;;;;;5029141;28;20467;-55
2023/03/10 10:18:12;;;;;;;12.27;2.50;;;12.10;99.90;;;;;;5020994;28;20227;-55
2023/03/10 10:20:47;;;;;;;10.98;2.25;;;12.20;99.90;;;;;;5043003;28;20029;-55
2023/03/10 10:23:18;;;;;;;13.10;2.20;;;12.30;99.90;;;;;;5025685;28;20503;-55
2023/03/10 10:25:44;;;;;;;11.35;2.60;;;12.50;99.90;;;;;;5028378;28;20033;-55
2023/03/10 10:28:24;;;;;;;14.30;2.30;;;12.60;99.90;;;;;;5008626;28;20441;-54
2023/03/10 10:30:49;;;;;;;7.50;1.98;;;12.60;99.90;;;;;;5025480;28;20088;-55
2023/03/10 10:33:15;;;;;;;12.95;2.50;;;12.40;99.90;;;;;;5026111;28;20041;-55
2023/03/10 10:35:45;;;;;;;10.90;2.42;;;12.30;99.90;;;;;;5027386;28;20084;-55
2023/03/10 10:38:12;;;;;;;11.55;2.70;;;12.50;99.90;;;;;;5026198;28;20044;-55
2023/03/10 10:41:06;;;;;;;10.98;2.08;;;12.40;99.90;;;;;;5022356;28;20037;-55
2023/03/10 10:43:40;;;;;;;9.77;2.17;;;12.50;99.90;;;;;;5042468;28;20578;-55
2023/03/10 10:46:08;;;;;;;12.85;2.30;;;12.40;99.90;;;;;;5037887;28;20502;-54
2023/03/10 10:48:41;;;;;;;11.82;2.00;;;12.30;99.90;;;;;;5044705;28;20037;-55
2023/03/10 10:51:23;;;;;;;15.75;2.47;;;12.40;99.90;;;;;;5040490;28;20090;-54
2023/03/10 10:53:49;;;;;;;12.35;2.60;;;12.30;99.90;;;;;;5043768;28;20106;-55
2023/03/10 10:56:17;;;;;;;10.90;1.98;;;12.30;99.90;;;;;;5033970;28;20040;-55
2023/03/10 10:59:01;;;;;;;9.20;2.35;;;12.30;99.90;;;;;;5050025;28;20156;-55
2023/03/10 11:01:58;;;;;;;10.27;2.53;;;12.20;99.90;;;;;;5042868;28;20046;-54
2023/03/10 11:04:26;;;;;;;8.60;2.05;;;12.20;99.90;;;;;;5044120;28;20037;-55
2023/03/10 11:07:08;;;;;;;5.90;1.65;;;12.30;99.90;;;;;;5052913;28;20041;-58
2023/03/10 11:09:34;;;;;;;8.43;1.73;;;12.30;99.90;;;;;;5042719;28;20047;-54
2023/03/10 11:12:18;;;;;;;7.22;1.50;;;12.20;99.90;;;;;;5033309;28;20127;-56
2023/03/10 11:14:51;;;;;;;7.30;1.55;;;12.20;99.90;;;;;;5051644;28;20044;-55
2023/03/10 11:17:28;;;;;;;9.83;2.30;;;12.10;99.90;;;;;;5043408;28;20120;-55
2023/03/10 11:20:15;;;;;;;8.38;1.67;;;12.10;99.90;;;;;;5023130;28;20416;-55
2023/03/10 11:22:53;;;;;;;8.95;1.40;;;12.10;99.90;;;;;;5044906;28;20037;-56
2023/03/10 11:25:27;;;;;;;6.95;1.67;;;12.10;99.90;;;;;;5040433;28;20033;-56
2023/03/10 11:28:14;;;;;;;7.13;1.67;;;12.10;99.90;;;;;;5026126;28;20053;-56
2023/03/10 11:30:49;;;;;;;9.65;2.03;;;12.00;99.90;;;;;;5037306;28;20499;-56
2023/03/10 11:33:38;;;;;;;5.65;1.75;;;11.90;99.90;;;;;;5040951;28;20094;-56
2023/03/10 11:38:45;;;;;;;12.38;1.73;;;11.80;99.90;;;;;;5868565;22;20050;-61
2023/03/10 11:41:17;;;;;;;5.07;1.40;;;11.80;99.90;;;;;;5023442;28;20087;-60
2023/03/10 11:43:54;;;;;;;7.10;1.40;;;11.50;99.90;;;;;;5038455;28;20152;-60
2023/03/10 11:46:32;;;;;;;9.48;1.50;;;11.50;99.90;;;;;;5019487;28;20095;-60
2023/03/10 11:49:04;;;;;;;4.85;1.52;;;11.30;99.90;;;;;;5052992;28;20115;-60
2023/03/10 11:52:02;;;;;;;7.60;1.40;;;11.10;99.90;;;;;;5042036;28;20064;-60
2023/03/10 11:54:37;;;;;;;9.50;1.92;;;10.80;99.90;;;;;;5056269;28;20042;-60
2023/03/10 11:57:09;;;;;;;6.63;1.40;;;10.50;99.90;;;;;;5060087;28;20422;-60
2023/03/10 11:59:42;;;;;;;8.02;1.45;;;10.40;99.90;;;;;;5063730;28;20129;-60
2023/03/10 12:02:23;;;;;;;3.58;1.02;;;10.50;99.90;;;;;;5062070;28;20161;-60
2023/03/10 12:05:07;;;;;;;7.55;1.73;;;10.60;99.90;;;;;;5067261;28;20124;-60
2023/03/10 12:07:37;;;;;;;6.30;1.20;;;10.70;99.90;;;;;;5061930;28;20033;-60
2023/03/10 12:10:24;;;;;;;4.95;1.35;;;10.60;99.90;;;;;;5061310;28;20046;-60
2023/03/10 12:12:52;;;;;;;5.25;1.17;;;10.70;99.90;;;;;;5059821;28;20442;-60
2023/03/10 12:15:31;;;;;;;6.43;1.27;;;10.60;99.90;;;;;;5069648;28;20090;-61
2023/03/10 12:17:57;;;;;;;4.63;0.93;;;10.50;99.90;;;;;;5058316;28;20040;-60
2023/03/10 12:20:30;;;;;;;5.30;0.88;;;10.50;99.90;;;;;;5062966;28;20291;-60
2023/03/10 12:22:58;;;;;;;6.05;1.23;;;10.50;99.90;;;;;;5061555;28;20041;-60
2023/03/10 12:25:27;;;;;;;7.00;1.73;;;10.50;99.90;;;;;;5060602;28;20595;-60
2023/03/10 12:28:21;;;;;;;3.13;0.98;;;10.50;99.90;;;;;;5062707;28;21576;-60
2023/03/10 12:30:58;;;;;;;4.25;1.20;;;10.40;99.90;;;;;;5058281;28;20048;-61
2023/03/10 12:33:33;;;;;;;6.15;1.35;;;10.50;99.90;;;;;;5060671;28;20390;-60
2023/03/10 12:36:20;;;;;;;4.57;1.08;;;10.60;99.90;;;;;;5061329;28;20475;-61
2023/03/10 12:38:56;;;;;;;3.63;1.35;;;10.60;99.90;;;;;;5057632;28;20048;-61
2023/03/10 12:41:27;;;;;;;6.25;1.33;;;10.50;99.90;;;;;;5046527;28;20135;-61
2023/03/10 12:44:22;;;;;;;5.72;1.60;;;10.50;99.90;;;;;;5048725;28;20043;-61
2023/03/10 12:46:51;;;;;;;4.05;0.90;;;10.50;99.90;;;;;;5038620;28;20044;-62
2023/03/10 12:49:52;;;;;;;4.97;1.40;;;10.40;99.90;;;;;;5046524;28;20498;-61
2023/03/10 12:52:39;;;;;;;3.10;0.95;;;10.30;99.90;;;;;;5044111;28;20361;-61
2023/03/10 12:55:16;;;;;;;1.95;0.93;;;10.30;99.90;;;;;;5047132;28;20040;-60
2023/03/10 12:58:12;;;;;;;2.58;0.70;;;10.30;99.90;;;;;;5050383;28;20661;-61
2023/03/10 13:00:47;;;;;;;3.53;1.02;;;10.30;99.90;;;;;;5046928;28;20028;-61
2023/03/10 13:03:17;;;;;;;6.03;1.00;;;10.30;99.90;;;;;;5048645;28;20706;-61
2023/03/10 13:06:00;;;;;;;3.92;1.00;;;10.30;99.90;;;;;;5028531;28;20683;-62